sensor_id;sensor_type;location;lat;lon;timestamp;temperature;humidity
13589;DHT22;6865;52.552;13.434;2023-07-31T00:01:31;16.00;99.90
13589;DHT22;6865;52.552;13.434;2023-07-31T00:03:57;16.00;99.90
13589;DHT22;6865;52.552;13.434;2023-07-31T00:06:24;16.00;99.90
13589;DHT22;6865;52.552;13.434;2023-07-31T00:08:51;16.00;99.90
13589;DHT22;6865;52.552;13.434;2023-07-31T00:11:17;15.90;99.90
13589;DHT22;6865;52.552;13.434;2023-07-31T00:13:44;15.90;99.90
13589;DHT22;6865;52.552;13.434;2023-07-31T00:16:11;15.80;99.90
13589;DHT22;6865;52.552;13.434;2023-07-31T00:18:37;15.70;99.90
13589;DHT22;6865;52.552;13.434;2023-07-31T00:21:04;15.70;99.90
13589;DHT22;6865;52.552;13.434;2023-07-31T00:23:31;15.70;99.90
13589;DHT22;6865;52.552;13.434;2023-07-31T00:25:57;15.60;99.90
13589;DHT22;6865;52.552;13.434;2023-07-31T00:28:24;15.70;99.90
13589;DHT22;6865;52.552;13.434;2023-07-31T00:30:51;15.70;99.90
13589;DHT22;6865;52.552;13.434;2023-07-31T00:33:17;15.70;99.90
13589;DHT22;6865;52.552;13.434;2023-07-31T00:35:44;15.70;99.90
13589;DHT22;6865;52.552;13.434;2023-07-31T00:38:11;15.70;99.90
13589;DHT22;6865;52.552;13.434;2023-07-31T00:40:37;15.70;99.90
13589;DHT22;6865;52.552;13.434;2023-07-31T00:43:04;15.70;99.90
13589;DHT22;6865;52.552;13.434;2023-07-31T00:45:32;15.60;99.90
13589;DHT22;6865;52.552;13.434;2023-07-31T00:47:59;15.60;99.90
13589;DHT22;6865;52.552;13.434;2023-07-31T00:50:27;15.60;99.90
13589;DHT22;6865;52.552;13.434;2023-07-31T00:52:54;15.70;99.90
13589;DHT22;6865;52.552;13.434;2023-07-31T00:55:21;15.70;99.90
13589;DHT22;6865;52.552;13.434;2023-07-31T00:57:49;15.70;99.90
13589;DHT22;6865;52.552;13.434;2023-07-31T01:00:18;15.70;99.90
13589;DHT22;6865;52.552;13.434;2023-07-31T01:02:45;15.80;99.90
13589;DHT22;6865;52.552;13.434;2023-07-31T01:05:12;15.80;99.90
13589;DHT22;6865;52.552;13.434;2023-07-31T01:07:49;15.80;99.90
13589;DHT22;6865;52.552;13.434;2023-07-31T01:10:24;15.90;99.90
13589;DHT22;6865;52.552;13.434;2023-07-31T01:12:53;15.90;99.90
13589;DHT22;6865;52.552;13.434;2023-07-31T01:15:21;15.80;99.90
13589;DHT22;6865;52.552;13.434;2023-07-31T01:17:47;15.80;99.90
13589;DHT22;6865;52.552;13.434;2023-07-31T01:20:21;15.90;99.90
13589;DHT22;6865;52.552;13.434;2023-07-31T01:26:22;16.00;99.90
13589;DHT22;6865;52.552;13.434;2023-07-31T01:28:28;16.00;99.90
13589;DHT22;6865;52.552;13.434;2023-07-31T01:30:58;16.00;99.90
13589;DHT22;6865;52.552;13.434;2023-07-31T01:33:27;15.90;99.90
13589;DHT22;6865;52.552;13.434;2023-07-31T01:35:54;16.00;99.90
13589;DHT22;6865;52.552;13.434;2023-07-31T01:38:21;16.00;99.90
13589;DHT22;6865;52.552;13.434;2023-07-31T01:40:54;16.00;99.90
13589;DHT22;6865;52.552;13.434;2023-07-31T01:43:21;16.00;99.90
13589;DHT22;6865;52.552;13.434;2023-07-31T01:45:48;15.90;99.90
13589;DHT22;6865;52.552;13.434;2023-07-31T01:48:14;15.90;99.90
13589;DHT22;6865;52.552;13.434;2023-07-31T01:50:41;16.00;99.90
13589;DHT22;6865;52.552;13.434;2023-07-31T01:53:08;15.90;99.90
13589;DHT22;6865;52.552;13.434;2023-07-31T01:55:34;15.90;99.90
13589;DHT22;6865;52.552;13.434;2023-07-31T01:58:01;15.90;99.90
13589;DHT22;6865;52.552;13.434;2023-07-31T02:00:28;15.90;99.90
13589;DHT22;6865;52.552;13.434;2023-07-31T02:02:54;15.90;99.90
13589;DHT22;6865;52.552;13.434;2023-07-31T02:05:21;16.00;99.90
13589;DHT22;6865;52.552;13.434;2023-07-31T02:07:48;16.00;99.90
13589;DHT22;6865;52.552;13.434;2023-07-31T02:10:14;16.10;99.90
13589;DHT22;6865;52.552;13.434;2023-07-31T02:12:41;16.00;99.90
13589;DHT22;6865;52.552;13.434;2023-07-31T02:15:10;16.10;99.90
13589;DHT22;6865;52.552;13.434;2023-07-31T02:17:37;16.10;99.90
13589;DHT22;6865;52.552;13.434;2023-07-31T02:20:04;16.00;99.90
13589;DHT22;6865;52.552;13.434;2023-07-31T02:22:30;16.00;99.90
13589;DHT22;6865;52.552;13.434;2023-07-31T02:24:57;16.00;99.90
13589;DHT22;6865;52.552;13.434;2023-07-31T02:27:24;16.00;99.90
13589;DHT22;6865;52.552;13.434;2023-07-31T02:29:53;16.00;99.90
13589;DHT22;6865;52.552;13.434;2023-07-31T02:32:21;15.90;99.90
13589;DHT22;6865;52.552;13.434;2023-07-31T02:34:48;16.00;99.90
13589;DHT22;6865;52.552;13.434;2023-07-31T02:37:14;15.90;99.90
13589;DHT22;6865;52.552;13.434;2023-07-31T02:39:41;15.90;99.90
13589;DHT22;6865;52.552;13.434;2023-07-31T02:42:08;15.90;99.90
13589;DHT22;6865;52.552;13.434;2023-07-31T02:44:34;15.90;99.90
13589;DHT22;6865;52.552;13.434;2023-07-31T02:47:01;15.90;99.90
13589;DHT22;6865;52.552;13.434;2023-07-31T02:49:29;15.80;99.90
13589;DHT22;6865;52.552;13.434;2023-07-31T02:51:56;15.80;99.90
13589;DHT22;6865;52.552;13.434;2023-07-31T02:54:22;15.80;99.90
13589;DHT22;6865;52.552;13.434;2023-07-31T02:56:49;15.40;99.90
13589;DHT22;6865;52.552;13.434;2023-07-31T02:59:17;15.80;99.90
13589;DHT22;6865;52.552;13.434;2023-07-31T03:01:44;15.90;99.90
13589;DHT22;6865;52.552;13.434;2023-07-31T03:04:10;15.90;99.90
13589;DHT22;6865;52.552;13.434;2023-07-31T03:06:37;15.90;99.90
13589;DHT22;6865;52.552;13.434;2023-07-31T03:09:04;15.80;99.90
13589;DHT22;6865;52.552;13.434;2023-07-31T03:11:31;15.80;99.90
13589;DHT22;6865;52.552;13.434;2023-07-31T03:13:57;15.80;99.90
13589;DHT22;6865;52.552;13.434;2023-07-31T03:16:24;15.90;99.90
13589;DHT22;6865;52.552;13.434;2023-07-31T03:18:51;15.90;99.90
13589;DHT22;6865;52.552;13.434;2023-07-31T03:21:17;15.80;99.90
13589;DHT22;6865;52.552;13.434;2023-07-31T03:23:44;15.90;99.90
13589;DHT22;6865;52.552;13.434;2023-07-31T03:26:11;15.90;99.90
13589;DHT22;6865;52.552;13.434;2023-07-31T03:28:37;15.80;99.90
13589;DHT22;6865;52.552;13.434;2023-07-31T03:31:04;15.80;99.90
13589;DHT22;6865;52.552;13.434;2023-07-31T03:33:31;15.80;99.90
13589;DHT22;6865;52.552;13.434;2023-07-31T03:35:58;15.80;99.90
13589;DHT22;6865;52.552;13.434;2023-07-31T03:38:24;15.90;99.90
13589;DHT22;6865;52.552;13.434;2023-07-31T03:40:51;15.80;99.90
13589;DHT22;6865;52.552;13.434;2023-07-31T03:43:17;15.90;99.90
13589;DHT22;6865;52.552;13.434;2023-07-31T03:45:44;15.90;99.90
13589;DHT22;6865;52.552;13.434;2023-07-31T03:48:11;15.90;99.90
13589;DHT22;6865;52.552;13.434;2023-07-31T03:50:38;16.00;99.90
13589;DHT22;6865;52.552;13.434;2023-07-31T03:53:04;16.00;99.90
13589;DHT22;6865;52.552;13.434;2023-07-31T03:55:31;16.00;99.90
13589;DHT22;6865;52.552;13.434;2023-07-31T03:57:58;16.00;99.90
13589;DHT22;6865;52.552;13.434;2023-07-31T04:00:24;16.10;99.90
13589;DHT22;6865;52.552;13.434;2023-07-31T04:02:52;16.10;99.90
13589;DHT22;6865;52.552;13.434;2023-07-31T04:05:19;16.10;99.90
13589;DHT22;6865;52.552;13.434;2023-07-31T04:07:45;16.10;99.90
13589;DHT22;6865;52.552;13.434;2023-07-31T04:10:12;16.10;99.90
13589;DHT22;6865;52.552;13.434;2023-07-31T04:12:39;16.20;99.90
13589;DHT22;6865;52.552;13.434;2023-07-31T04:15:06;16.00;99.90
13589;DHT22;6865;52.552;13.434;2023-07-31T04:17:33;16.10;99.90
13589;DHT22;6865;52.552;13.434;2023-07-31T04:20:00;16.20;99.90
13589;DHT22;6865;52.552;13.434;2023-07-31T04:22:27;16.20;99.90
13589;DHT22;6865;52.552;13.434;2023-07-31T04:24:53;15.50;99.90
13589;DHT22;6865;52.552;13.434;2023-07-31T04:27:20;16.20;99.90
13589;DHT22;6865;52.552;13.434;2023-07-31T04:29:47;15.90;99.90
13589;DHT22;6865;52.552;13.434;2023-07-31T04:32:14;16.20;99.90
13589;DHT22;6865;52.552;13.434;2023-07-31T04:34:43;16.20;99.90
13589;DHT22;6865;52.552;13.434;2023-07-31T04:37:10;16.20;99.90
13589;DHT22;6865;52.552;13.434;2023-07-31T04:39:37;16.20;99.90
13589;DHT22;6865;52.552;13.434;2023-07-31T04:42:03;16.30;99.90
13589;DHT22;6865;52.552;13.434;2023-07-31T04:44:30;16.30;99.90
13589;DHT22;6865;52.552;13.434;2023-07-31T04:46:57;16.40;99.90
13589;DHT22;6865;52.552;13.434;2023-07-31T04:49:24;16.40;99.90
13589;DHT22;6865;52.552;13.434;2023-07-31T04:51:50;16.30;99.90
13589;DHT22;6865;52.552;13.434;2023-07-31T04:54:17;16.30;99.90
13589;DHT22;6865;52.552;13.434;2023-07-31T04:56:43;16.30;99.90
13589;DHT22;6865;52.552;13.434;2023-07-31T04:59:10;16.30;99.90
13589;DHT22;6865;52.552;13.434;2023-07-31T05:01:37;16.30;99.90
13589;DHT22;6865;52.552;13.434;2023-07-31T05:04:04;16.10;99.90
13589;DHT22;6865;52.552;13.434;2023-07-31T05:06:30;16.20;99.90
13589;DHT22;6865;52.552;13.434;2023-07-31T05:08:57;16.20;99.90
13589;DHT22;6865;52.552;13.434;2023-07-31T05:11:24;16.20;99.90
13589;DHT22;6865;52.552;13.434;2023-07-31T05:13:50;16.30;99.90
13589;DHT22;6865;52.552;13.434;2023-07-31T05:16:17;16.30;99.90
13589;DHT22;6865;52.552;13.434;2023-07-31T05:18:43;16.40;99.90
13589;DHT22;6865;52.552;13.434;2023-07-31T05:21:10;16.40;99.90
13589;DHT22;6865;52.552;13.434;2023-07-31T05:23:37;16.40;99.90
13589;DHT22;6865;52.552;13.434;2023-07-31T05:26:07;16.50;99.90
13589;DHT22;6865;52.552;13.434;2023-07-31T05:28:36;16.60;99.90
13589;DHT22;6865;52.552;13.434;2023-07-31T05:31:03;16.60;99.90
13589;DHT22;6865;52.552;13.434;2023-07-31T05:33:31;16.50;99.90
13589;DHT22;6865;52.552;13.434;2023-07-31T05:35:57;16.70;99.90
13589;DHT22;6865;52.552;13.434;2023-07-31T05:38:24;16.70;99.90
13589;DHT22;6865;52.552;13.434;2023-07-31T05:40:51;16.80;99.90
13589;DHT22;6865;52.552;13.434;2023-07-31T05:43:18;16.80;99.90
13589;DHT22;6865;52.552;13.434;2023-07-31T05:45:44;16.40;99.90
13589;DHT22;6865;52.552;13.434;2023-07-31T05:48:11;16.60;99.90
13589;DHT22;6865;52.552;13.434;2023-07-31T05:50:38;16.70;99.90
13589;DHT22;6865;52.552;13.434;2023-07-31T05:53:11;16.80;99.90
13589;DHT22;6865;52.552;13.434;2023-07-31T05:55:37;16.80;99.90
13589;DHT22;6865;52.552;13.434;2023-07-31T05:58:04;16.90;99.90
13589;DHT22;6865;52.552;13.434;2023-07-31T06:00:31;16.90;99.90
13589;DHT22;6865;52.552;13.434;2023-07-31T06:03:00;17.00;99.90
13589;DHT22;6865;52.552;13.434;2023-07-31T06:05:29;16.90;99.90
13589;DHT22;6865;52.552;13.434;2023-07-31T06:07:57;16.90;99.90
13589;DHT22;6865;52.552;13.434;2023-07-31T06:10:24;16.50;99.90
13589;DHT22;6865;52.552;13.434;2023-07-31T06:12:50;16.70;99.90
13589;DHT22;6865;52.552;13.434;2023-07-31T06:15:17;16.80;99.90
13589;DHT22;6865;52.552;13.434;2023-07-31T06:17:45;16.90;99.90
13589;DHT22;6865;52.552;13.434;2023-07-31T06:20:12;17.00;99.90
13589;DHT22;6865;52.552;13.434;2023-07-31T06:22:39;16.80;99.90
13589;DHT22;6865;52.552;13.434;2023-07-31T06:25:06;16.70;99.90
13589;DHT22;6865;52.552;13.434;2023-07-31T06:27:32;16.70;99.90
13589;DHT22;6865;52.552;13.434;2023-07-31T06:29:59;16.80;99.90
13589;DHT22;6865;52.552;13.434;2023-07-31T06:32:26;16.70;99.90
13589;DHT22;6865;52.552;13.434;2023-07-31T06:34:52;16.90;99.90
13589;DHT22;6865;52.552;13.434;2023-07-31T06:37:20;16.80;99.90
13589;DHT22;6865;52.552;13.434;2023-07-31T06:39:47;16.70;99.90
13589;DHT22;6865;52.552;13.434;2023-07-31T06:42:13;16.70;99.90
13589;DHT22;6865;52.552;13.434;2023-07-31T06:44:40;16.80;99.90
13589;DHT22;6865;52.552;13.434;2023-07-31T06:47:07;16.90;99.90
13589;DHT22;6865;52.552;13.434;2023-07-31T06:49:33;17.00;99.90
13589;DHT22;6865;52.552;13.434;2023-07-31T06:52:00;17.10;99.90
13589;DHT22;6865;52.552;13.434;2023-07-31T06:54:27;17.10;99.90
13589;DHT22;6865;52.552;13.434;2023-07-31T06:56:53;17.10;99.90
13589;DHT22;6865;52.552;13.434;2023-07-31T06:59:20;17.10;99.90
13589;DHT22;6865;52.552;13.434;2023-07-31T07:01:47;17.10;99.90
13589;DHT22;6865;52.552;13.434;2023-07-31T07:04:14;17.10;99.90
13589;DHT22;6865;52.552;13.434;2023-07-31T07:06:42;17.00;99.90
13589;DHT22;6865;52.552;13.434;2023-07-31T07:09:09;17.00;99.90
13589;DHT22;6865;52.552;13.434;2023-07-31T07:11:35;16.60;99.90
13589;DHT22;6865;52.552;13.434;2023-07-31T07:14:04;16.90;99.90
13589;DHT22;6865;52.552;13.434;2023-07-31T07:16:31;17.10;99.90
13589;DHT22;6865;52.552;13.434;2023-07-31T07:18:57;16.90;99.90
13589;DHT22;6865;52.552;13.434;2023-07-31T07:21:30;17.00;99.90
13589;DHT22;6865;52.552;13.434;2023-07-31T07:23:57;16.80;99.90
13589;DHT22;6865;52.552;13.434;2023-07-31T07:26:24;16.90;99.90
13589;DHT22;6865;52.552;13.434;2023-07-31T07:28:50;17.00;99.90
13589;DHT22;6865;52.552;13.434;2023-07-31T07:31:17;17.00;99.90
13589;DHT22;6865;52.552;13.434;2023-07-31T07:33:44;17.20;99.90
13589;DHT22;6865;52.552;13.434;2023-07-31T07:36:10;17.20;99.90
13589;DHT22;6865;52.552;13.434;2023-07-31T07:38:39;17.20;99.90
13589;DHT22;6865;52.552;13.434;2023-07-31T07:41:05;17.30;99.90
13589;DHT22;6865;52.552;13.434;2023-07-31T07:43:32;17.30;99.90
13589;DHT22;6865;52.552;13.434;2023-07-31T07:45:59;17.30;99.90
13589;DHT22;6865;52.552;13.434;2023-07-31T07:48:26;17.30;99.90
13589;DHT22;6865;52.552;13.434;2023-07-31T07:50:52;17.30;99.90
13589;DHT22;6865;52.552;13.434;2023-07-31T07:53:19;17.60;99.90
13589;DHT22;6865;52.552;13.434;2023-07-31T07:55:46;17.80;99.90
13589;DHT22;6865;52.552;13.434;2023-07-31T07:58:12;17.90;99.90
13589;DHT22;6865;52.552;13.434;2023-07-31T08:00:39;17.90;99.90
13589;DHT22;6865;52.552;13.434;2023-07-31T08:03:06;18.00;99.90
13589;DHT22;6865;52.552;13.434;2023-07-31T08:05:33;17.90;99.90
13589;DHT22;6865;52.552;13.434;2023-07-31T08:08:01;17.90;99.90
13589;DHT22;6865;52.552;13.434;2023-07-31T08:10:27;17.80;99.90
13589;DHT22;6865;52.552;13.434;2023-07-31T08:12:54;17.80;99.90
13589;DHT22;6865;52.552;13.434;2023-07-31T08:15:21;17.70;99.90
13589;DHT22;6865;52.552;13.434;2023-07-31T08:17:47;17.70;99.90
13589;DHT22;6865;52.552;13.434;2023-07-31T08:20:14;17.80;99.90
13589;DHT22;6865;52.552;13.434;2023-07-31T08:22:41;17.70;99.90
13589;DHT22;6865;52.552;13.434;2023-07-31T08:25:08;17.70;99.90
13589;DHT22;6865;52.552;13.434;2023-07-31T08:27:34;17.70;99.90
13589;DHT22;6865;52.552;13.434;2023-07-31T08:30:01;17.50;99.90
13589;DHT22;6865;52.552;13.434;2023-07-31T08:32:28;17.30;99.90
13589;DHT22;6865;52.552;13.434;2023-07-31T08:34:54;17.10;99.90
13589;DHT22;6865;52.552;13.434;2023-07-31T08:37:21;17.20;99.90
13589;DHT22;6865;52.552;13.434;2023-07-31T08:39:48;17.40;99.90
13589;DHT22;6865;52.552;13.434;2023-07-31T08:42:14;17.40;99.90
13589;DHT22;6865;52.552;13.434;2023-07-31T08:44:41;17.50;99.90
13589;DHT22;6865;52.552;13.434;2023-07-31T08:47:09;17.60;99.90
13589;DHT22;6865;52.552;13.434;2023-07-31T08:49:37;17.70;99.90
13589;DHT22;6865;52.552;13.434;2023-07-31T08:52:05;17.80;99.90
13589;DHT22;6865;52.552;13.434;2023-07-31T08:54:32;17.80;99.90
13589;DHT22;6865;52.552;13.434;2023-07-31T08:57:00;18.00;99.90
13589;DHT22;6865;52.552;13.434;2023-07-31T08:59:30;18.00;99.90
13589;DHT22;6865;52.552;13.434;2023-07-31T09:02:00;17.80;99.90
13589;DHT22;6865;52.552;13.434;2023-07-31T09:04:29;17.90;99.90
13589;DHT22;6865;52.552;13.434;2023-07-31T09:07:00;18.10;99.90
13589;DHT22;6865;52.552;13.434;2023-07-31T09:09:27;18.20;99.90
13589;DHT22;6865;52.552;13.434;2023-07-31T09:11:55;18.20;99.90
13589;DHT22;6865;52.552;13.434;2023-07-31T09:14:22;18.30;99.90
13589;DHT22;6865;52.552;13.434;2023-07-31T09:16:55;18.30;99.90
13589;DHT22;6865;52.552;13.434;2023-07-31T09:19:32;18.20;99.90
13589;DHT22;6865;52.552;13.434;2023-07-31T09:22:00;18.20;99.90
13589;DHT22;6865;52.552;13.434;2023-07-31T09:24:32;18.20;99.90
13589;DHT22;6865;52.552;13.434;2023-07-31T09:27:00;18.30;99.90
13589;DHT22;6865;52.552;13.434;2023-07-31T09:29:28;18.30;99.90
13589;DHT22;6865;52.552;13.434;2023-07-31T09:31:56;18.40;99.90
13589;DHT22;6865;52.552;13.434;2023-07-31T09:34:37;18.40;99.90
13589;DHT22;6865;52.552;13.434;2023-07-31T09:37:05;18.40;99.90
13589;DHT22;6865;52.552;13.434;2023-07-31T09:39:33;18.20;99.90
13589;DHT22;6865;52.552;13.434;2023-07-31T09:42:11;18.10;99.90
13589;DHT22;6865;52.552;13.434;2023-07-31T09:44:39;18.00;99.90
13589;DHT22;6865;52.552;13.434;2023-07-31T09:47:08;18.00;99.90
13589;DHT22;6865;52.552;13.434;2023-07-31T09:49:47;17.90;99.90
13589;DHT22;6865;52.552;13.434;2023-07-31T09:52:13;17.70;99.90
13589;DHT22;6865;52.552;13.434;2023-07-31T09:54:40;17.80;99.90
13589;DHT22;6865;52.552;13.434;2023-07-31T09:57:08;17.90;99.90
13589;DHT22;6865;52.552;13.434;2023-07-31T09:59:36;18.00;99.90
13589;DHT22;6865;52.552;13.434;2023-07-31T10:02:03;18.30;99.90
13589;DHT22;6865;52.552;13.434;2023-07-31T10:04:30;18.30;99.90
13589;DHT22;6865;52.552;13.434;2023-07-31T10:06:58;18.20;99.90
13589;DHT22;6865;52.552;13.434;2023-07-31T10:09:31;18.10;99.90
13589;DHT22;6865;52.552;13.434;2023-07-31T10:12:00;18.10;99.90
13589;DHT22;6865;52.552;13.434;2023-07-31T10:14:29;18.30;99.90
13589;DHT22;6865;52.552;13.434;2023-07-31T10:16:57;18.30;99.90
13589;DHT22;6865;52.552;13.434;2023-07-31T10:19:25;18.50;99.90
13589;DHT22;6865;52.552;13.434;2023-07-31T10:21:53;18.70;99.90
13589;DHT22;6865;52.552;13.434;2023-07-31T10:24:20;18.70;99.90
13589;DHT22;6865;52.552;13.434;2023-07-31T10:26:48;18.60;99.90
13589;DHT22;6865;52.552;13.434;2023-07-31T10:29:15;18.60;99.90
13589;DHT22;6865;52.552;13.434;2023-07-31T10:31:45;18.50;99.90
13589;DHT22;6865;52.552;13.434;2023-07-31T10:34:13;18.40;99.90
13589;DHT22;6865;52.552;13.434;2023-07-31T10:36:39;18.50;99.90
13589;DHT22;6865;52.552;13.434;2023-07-31T10:39:36;18.50;99.90
13589;DHT22;6865;52.552;13.434;2023-07-31T10:42:11;18.40;99.90
13589;DHT22;6865;52.552;13.434;2023-07-31T10:44:38;18.40;99.90
13589;DHT22;6865;52.552;13.434;2023-07-31T10:47:09;18.50;99.90
13589;DHT22;6865;52.552;13.434;2023-07-31T10:49:39;18.40;99.90
13589;DHT22;6865;52.552;13.434;2023-07-31T10:52:10;18.40;99.90
13589;DHT22;6865;52.552;13.434;2023-07-31T10:54:39;18.60;99.90
13589;DHT22;6865;52.552;13.434;2023-07-31T10:57:23;18.80;99.90
13589;DHT22;6865;52.552;13.434;2023-07-31T11:00:18;19.00;99.90
13589;DHT22;6865;52.552;13.434;2023-07-31T11:03:02;19.30;99.90
13589;DHT22;6865;52.552;13.434;2023-07-31T11:05:56;19.60;99.90
13589;DHT22;6865;52.552;13.434;2023-07-31T11:08:27;19.60;99.90
13589;DHT22;6865;52.552;13.434;2023-07-31T11:13:34;19.90;99.90
13589;DHT22;6865;52.552;13.434;2023-07-31T11:16:05;20.00;99.90
13589;DHT22;6865;52.552;13.434;2023-07-31T11:18:32;20.30;99.90
13589;DHT22;6865;52.552;13.434;2023-07-31T11:20:59;20.30;99.90
13589;DHT22;6865;52.552;13.434;2023-07-31T11:23:26;20.20;99.90
13589;DHT22;6865;52.552;13.434;2023-07-31T11:25:52;20.10;99.90
13589;DHT22;6865;52.552;13.434;2023-07-31T11:28:19;20.20;99.90
13589;DHT22;6865;52.552;13.434;2023-07-31T11:30:46;20.30;99.90
13589;DHT22;6865;52.552;13.434;2023-07-31T11:33:13;20.20;99.90
13589;DHT22;6865;52.552;13.434;2023-07-31T11:35:45;20.20;99.90
13589;DHT22;6865;52.552;13.434;2023-07-31T11:38:24;20.40;99.90
13589;DHT22;6865;52.552;13.434;2023-07-31T11:40:52;20.30;99.90
13589;DHT22;6865;52.552;13.434;2023-07-31T11:43:20;20.10;99.90
13589;DHT22;6865;52.552;13.434;2023-07-31T11:45:56;20.00;99.90
13589;DHT22;6865;52.552;13.434;2023-07-31T11:48:33;19.90;99.90
13589;DHT22;6865;52.552;13.434;2023-07-31T11:51:05;19.80;99.90
13589;DHT22;6865;52.552;13.434;2023-07-31T11:56:04;19.90;99.90
13589;DHT22;6865;52.552;13.434;2023-07-31T11:58:34;19.90;99.90
13589;DHT22;6865;52.552;13.434;2023-07-31T12:01:02;20.00;99.90
13589;DHT22;6865;52.552;13.434;2023-07-31T12:03:30;20.00;99.90
13589;DHT22;6865;52.552;13.434;2023-07-31T12:05:58;19.90;99.90
13589;DHT22;6865;52.552;13.434;2023-07-31T12:08:26;20.00;99.90
13589;DHT22;6865;52.552;13.434;2023-07-31T12:10:53;20.00;99.90
13589;DHT22;6865;52.552;13.434;2023-07-31T12:13:23;20.00;99.90
13589;DHT22;6865;52.552;13.434;2023-07-31T12:15:54;20.10;99.90
13589;DHT22;6865;52.552;13.434;2023-07-31T12:18:27;20.10;99.90
13589;DHT22;6865;52.552;13.434;2023-07-31T12:20:56;20.10;99.90
13589;DHT22;6865;52.552;13.434;2023-07-31T12:23:25;20.00;99.90
13589;DHT22;6865;52.552;13.434;2023-07-31T12:26:08;20.00;99.90
13589;DHT22;6865;52.552;13.434;2023-07-31T12:28:49;20.20;99.90
13589;DHT22;6865;52.552;13.434;2023-07-31T12:31:17;20.40;99.90
13589;DHT22;6865;52.552;13.434;2023-07-31T12:33:46;20.60;99.90
13589;DHT22;6865;52.552;13.434;2023-07-31T12:36:17;20.70;99.90
13589;DHT22;6865;52.552;13.434;2023-07-31T12:38:44;20.50;99.90
13589;DHT22;6865;52.552;13.434;2023-07-31T12:41:12;20.60;99.90
13589;DHT22;6865;52.552;13.434;2023-07-31T12:43:40;20.60;99.90
13589;DHT22;6865;52.552;13.434;2023-07-31T12:46:07;20.60;99.90
13589;DHT22;6865;52.552;13.434;2023-07-31T12:48:35;20.60;99.90
13589;DHT22;6865;52.552;13.434;2023-07-31T12:51:02;20.80;99.90
13589;DHT22;6865;52.552;13.434;2023-07-31T12:53:29;21.00;99.90
13589;DHT22;6865;52.552;13.434;2023-07-31T12:55:56;21.10;99.90
13589;DHT22;6865;52.552;13.434;2023-07-31T12:58:23;21.20;99.90
13589;DHT22;6865;52.552;13.434;2023-07-31T13:00:50;21.30;99.90
13589;DHT22;6865;52.552;13.434;2023-07-31T13:03:17;21.30;99.90
13589;DHT22;6865;52.552;13.434;2023-07-31T13:05:44;21.30;99.90
13589;DHT22;6865;52.552;13.434;2023-07-31T13:08:11;21.20;99.90
13589;DHT22;6865;52.552;13.434;2023-07-31T13:10:38;21.20;99.90
13589;DHT22;6865;52.552;13.434;2023-07-31T13:13:05;21.10;99.90
13589;DHT22;6865;52.552;13.434;2023-07-31T13:15:32;20.90;99.90
13589;DHT22;6865;52.552;13.434;2023-07-31T13:17:58;20.60;99.90
13589;DHT22;6865;52.552;13.434;2023-07-31T13:20:26;20.40;99.90
13589;DHT22;6865;52.552;13.434;2023-07-31T13:22:53;20.10;99.90
13589;DHT22;6865;52.552;13.434;2023-07-31T13:25:19;18.90;99.90
13589;DHT22;6865;52.552;13.434;2023-07-31T13:27:46;20.10;99.90
13589;DHT22;6865;52.552;13.434;2023-07-31T13:30:12;20.30;99.90
13589;DHT22;6865;52.552;13.434;2023-07-31T13:32:39;20.40;99.90
13589;DHT22;6865;52.552;13.434;2023-07-31T13:35:07;20.60;99.90
13589;DHT22;6865;52.552;13.434;2023-07-31T13:37:35;20.60;99.90
13589;DHT22;6865;52.552;13.434;2023-07-31T13:40:02;20.70;99.90
13589;DHT22;6865;52.552;13.434;2023-07-31T13:42:31;20.80;99.90
13589;DHT22;6865;52.552;13.434;2023-07-31T13:44:58;20.80;99.90
13589;DHT22;6865;52.552;13.434;2023-07-31T13:47:25;20.80;99.90
13589;DHT22;6865;52.552;13.434;2023-07-31T13:49:51;21.00;99.90
13589;DHT22;6865;52.552;13.434;2023-07-31T13:52:18;21.10;99.90
13589;DHT22;6865;52.552;13.434;2023-07-31T13:54:45;21.00;99.90
13589;DHT22;6865;52.552;13.434;2023-07-31T13:57:12;21.30;99.90
13589;DHT22;6865;52.552;13.434;2023-07-31T13:59:38;21.30;99.90
13589;DHT22;6865;52.552;13.434;2023-07-31T14:02:05;21.50;99.90
13589;DHT22;6865;52.552;13.434;2023-07-31T14:04:32;21.60;99.90
13589;DHT22;6865;52.552;13.434;2023-07-31T14:06:59;21.70;99.90
13589;DHT22;6865;52.552;13.434;2023-07-31T14:09:26;21.80;99.90
13589;DHT22;6865;52.552;13.434;2023-07-31T14:11:54;21.80;99.90
13589;DHT22;6865;52.552;13.434;2023-07-31T14:14:20;21.80;99.90
13589;DHT22;6865;52.552;13.434;2023-07-31T14:16:47;21.50;99.90
13589;DHT22;6865;52.552;13.434;2023-07-31T14:19:14;21.60;99.90
13589;DHT22;6865;52.552;13.434;2023-07-31T14:21:41;21.50;99.90
13589;DHT22;6865;52.552;13.434;2023-07-31T14:24:09;21.50;99.90
13589;DHT22;6865;52.552;13.434;2023-07-31T14:26:35;21.30;99.90
13589;DHT22;6865;52.552;13.434;2023-07-31T14:29:02;21.30;99.90
13589;DHT22;6865;52.552;13.434;2023-07-31T14:31:29;21.20;99.90
13589;DHT22;6865;52.552;13.434;2023-07-31T14:33:55;21.30;99.90
13589;DHT22;6865;52.552;13.434;2023-07-31T14:36:23;21.40;99.90
13589;DHT22;6865;52.552;13.434;2023-07-31T14:38:50;21.40;99.90
13589;DHT22;6865;52.552;13.434;2023-07-31T14:41:17;21.40;99.90
13589;DHT22;6865;52.552;13.434;2023-07-31T14:43:43;21.50;99.90
13589;DHT22;6865;52.552;13.434;2023-07-31T14:46:10;21.60;99.90
13589;DHT22;6865;52.552;13.434;2023-07-31T14:48:37;21.50;99.90
13589;DHT22;6865;52.552;13.434;2023-07-31T14:51:04;21.50;99.90
13589;DHT22;6865;52.552;13.434;2023-07-31T14:53:30;21.50;99.90
13589;DHT22;6865;52.552;13.434;2023-07-31T14:55:57;21.50;99.90
13589;DHT22;6865;52.552;13.434;2023-07-31T14:58:24;21.50;99.90
13589;DHT22;6865;52.552;13.434;2023-07-31T15:00:51;21.40;99.90
13589;DHT22;6865;52.552;13.434;2023-07-31T15:03:18;21.40;99.90
13589;DHT22;6865;52.552;13.434;2023-07-31T15:05:44;21.40;99.90
13589;DHT22;6865;52.552;13.434;2023-07-31T15:08:11;21.40;99.90
13589;DHT22;6865;52.552;13.434;2023-07-31T15:10:38;21.30;99.90
13589;DHT22;6865;52.552;13.434;2023-07-31T15:13:04;21.30;99.90
13589;DHT22;6865;52.552;13.434;2023-07-31T15:15:31;21.30;99.90
13589;DHT22;6865;52.552;13.434;2023-07-31T15:17:58;21.30;99.90
13589;DHT22;6865;52.552;13.434;2023-07-31T15:20:24;21.10;99.90
13589;DHT22;6865;52.552;13.434;2023-07-31T15:22:51;21.20;99.90
13589;DHT22;6865;52.552;13.434;2023-07-31T15:25:18;21.20;99.90
13589;DHT22;6865;52.552;13.434;2023-07-31T15:27:44;21.20;99.90
13589;DHT22;6865;52.552;13.434;2023-07-31T15:30:12;21.20;99.90
13589;DHT22;6865;52.552;13.434;2023-07-31T15:32:38;21.40;99.90
13589;DHT22;6865;52.552;13.434;2023-07-31T15:35:06;21.40;99.90
13589;DHT22;6865;52.552;13.434;2023-07-31T15:37:33;21.60;99.90
13589;DHT22;6865;52.552;13.434;2023-07-31T15:39:59;21.60;99.90
13589;DHT22;6865;52.552;13.434;2023-07-31T15:42:26;21.40;99.90